Portada
METAR-TAF:

METAR-TAF

Aeropuertos :

Aeropuerto Internacional de Baréin

Baréin, Bahréin

latitud: 26-16N, longitud: 050-39E, altitud: 2 m

Observación

El informe se hizo hace 19 minutos, a las 01:00 UTC
Viento 5 kt del norte-noroeste
Temperatura 32°C
Humedad 71%
Presión 1006 hPa
Visibilidad: 8000 m
Cielo despejado

METAR: OBBI 250100Z 33005KT 8000 SKC 32/26 Q1006 NOSIG

Hora: 04:19 (01:19 UTC)

Pronóstico

El informe se hizo hace 2 horas y 19 minutos, a las 23:00 UTC
Pronóstico válido del 25 a las 00 UTC al 26 a las 06 UTC
Viento 7 kt del noroeste
Visibilidad: 7000 m

TAF: OBBI 242300Z 2500/2606 32007KT 7000 NSC

Observaciones y pronósticos meteorológicos de más de 4000 aeropuertos (mensajes METAR y TAF).

Los puntos amarillos y rojos representan las estaciones disponibles.

Ponga el ratón en el punto deseado para ver el nombre de la estación.

Haga clic para ver las observaciones y los pronósticos meteorológicos.

Para cambiar el mapa : haga clic en los botones verdes con una cruz de color negro para hacer un zoom, en el botón verde con un guión para alejar o en las flechas verdes para mapas adyacentes.


METAR-TAF: